Arbuckle, West Virginia
Current Conditions -  °F | °C
As of 8:15 PM on Saturday 25 Oct 2014 (Local Time) from K3I2 Reporting Station
Clear Clear  
Wind Chill: 61°   Ceiling: Unl
Heat Index: 61°   Visibility: 10mi
Dew Point: 54°   Wind: 7mph
Humidity: 77%   Direction: 230°SW
Pressure: 29.89"   Gusts: NA
Location:  38.7463°N, 81.8897°W
Report Text: K3I2 260015Z AUTO 23006KT 10SM CLR 16/12 A2989 RMK AO2
Loading
Personal Weather Stations






























Interactive Weather Map
Tropical Storm Tracking
New forecast layout! Learn more

10-Day Weather Forecast

Advertisements
Track Severe Weather on mobile